This is the latest recevied weather packets stored in our database for station/object KC3UTO. If no packets are shown the sender has not sent any weather packets the latest 10 day(s).
| Time | Temp. | Humidity | Pressure | Rain* | Wind** | Luminosity | Snow |
|---|---|---|---|---|---|---|---|
| 1777757743 | 13.89° C | 32% | 1010.2 hPa | 0 mm | - | 148 W/m² | - |
| 1777757441 | 13.89° C | 32% | 1010.3 hPa | 0 mm | - | 91 W/m² | - |
| 1777757140 | 13.89° C | 32% | 1010.2 hPa | 0 mm | - | 87 W/m² | - |
| 1777756837 | 14.44° C | 32% | 1010.2 hPa | 0 mm | - | 91 W/m² | - |
| 1777756532 | 14.44° C | 33% | 1010.1 hPa | 0 mm | - | 145 W/m² | - |
| 1777756230 | 13.89° C | 33% | 1010 hPa | 0 mm | - | 106 W/m² | - |
| 1777755927 | 14.44° C | 33% | 1010.1 hPa | 0 mm | - | 142 W/m² | - |
| 1777755624 | 13.89° C | 33% | 1010 hPa | 0 mm | - | 189 W/m² | - |
| 1777754109 | 14.44° C | 33% | 1010 hPa | 0 mm | - | 197 W/m² | - |
| 1777753806 | 13.89° C | 34% | 1010.2 hPa | 0 mm | - | 188 W/m² | - |
| 1777753502 | 15° C | 33% | 1010.2 hPa | 0 mm | - | 149 W/m² | - |
| 1777753200 | 14.44° C | 34% | 1010.1 hPa | 0 mm | - | 169 W/m² | - |
| 1777752896 | 14.44° C | 35% | 1010.1 hPa | 0 mm | - | 158 W/m² | - |
| 1777752593 | 14.44° C | 33% | 1010 hPa | 0 mm | - | 160 W/m² | - |
| 1777752289 | 13.89° C | 32% | 1010.3 hPa | 0 mm | - | 147 W/m² | - |
| 1777751987 | 14.44° C | 33% | 1010 hPa | 0 mm | - | 167 W/m² | - |
| 1777751684 | 15° C | 33% | 1010.1 hPa | 0 mm | - | 196 W/m² | - |
| 1777751380 | 15° C | 31% | 1010.3 hPa | 0 mm | - | 209 W/m² | - |
| 1777750165 | 14.44° C | 32% | 1010.6 hPa | 0 mm | - | 229 W/m² | - |
| 1777749863 | 15.56° C | 31% | 1010.6 hPa | 0 mm | - | 234 W/m² | - |
| 1777749559 | 15.56° C | 32% | 1010.7 hPa | 0 mm | - | 270 W/m² | - |
| 1777748955 | 15° C | 33% | 1011 hPa | 0 mm | - | 202 W/m² | - |
| 1777748652 | 15° C | 34% | 1011.2 hPa | 0 mm | - | 286 W/m² | - |
| 1777748348 | 15° C | 36% | 1011 hPa | 0 mm | - | 235 W/m² | - |
| 1777747436 | 15° C | 32% | 1011.2 hPa | 0 mm | - | 759 W/m² | - |
* Rain latest hour (hover to see other rain measurements)
** Current wind speed in m/s (hover to see current wind gust speed)